sensor_id;sensor_type;location;lat;lon;timestamp;pressure;altitude;pressure_sealevel;temperature;humidity
79123;BME280;68526;44.600;26.032;2023-04-25T00:00:15;99638.84;;;14.09;68.10
79123;BME280;68526;44.600;26.032;2023-04-25T00:00:32;99645.50;;;14.08;68.33
79123;BME280;68526;44.600;26.032;2023-04-25T00:00:48;99643.56;;;14.09;68.27
79123;BME280;68526;44.600;26.032;2023-04-25T00:01:04;99636.03;;;14.06;68.43
79123;BME280;68526;44.600;26.032;2023-04-25T00:01:21;99642.66;;;14.05;68.60
79123;BME280;68526;44.600;26.032;2023-04-25T00:01:37;99647.03;;;14.06;68.76
79123;BME280;68526;44.600;26.032;2023-04-25T00:01:53;99640.75;;;14.05;68.99
79123;BME280;68526;44.600;26.032;2023-04-25T00:02:10;99636.31;;;14.01;68.77
79123;BME280;68526;44.600;26.032;2023-04-25T00:02:27;99640.66;;;14.02;69.00
79123;BME280;68526;44.600;26.032;2023-04-25T00:02:43;99643.03;;;14.03;69.23
79123;BME280;68526;44.600;26.032;2023-04-25T00:02:59;99637.81;;;13.98;69.03
79123;BME280;68526;44.600;26.032;2023-04-25T00:03:15;99637.47;;;14.00;68.68
79123;BME280;68526;44.600;26.032;2023-04-25T00:03:33;99638.69;;;14.02;68.46
79123;BME280;68526;44.600;26.032;2023-04-25T00:03:50;99638.16;;;13.97;68.25
79123;BME280;68526;44.600;26.032;2023-04-25T00:04:06;99633.47;;;13.97;68.03
79123;BME280;68526;44.600;26.032;2023-04-25T00:04:22;99636.94;;;13.94;68.15
79123;BME280;68526;44.600;26.032;2023-04-25T00:04:38;99636.94;;;13.94;68.35
79123;BME280;68526;44.600;26.032;2023-04-25T00:04:54;99633.03;;;13.95;68.18
79123;BME280;68526;44.600;26.032;2023-04-25T00:05:13;99629.81;;;13.93;67.96
79123;BME280;68526;44.600;26.032;2023-04-25T00:05:31;99629.81;;;13.93;68.35
79123;BME280;68526;44.600;26.032;2023-04-25T00:05:47;99633.69;;;13.88;68.02
79123;BME280;68526;44.600;26.032;2023-04-25T00:06:04;99631.25;;;13.87;67.51
79123;BME280;68526;44.600;26.032;2023-04-25T00:06:20;99630.41;;;13.83;67.03
79123;BME280;68526;44.600;26.032;2023-04-25T00:06:36;99629.59;;;13.82;66.95
79123;BME280;68526;44.600;26.032;2023-04-25T00:06:53;99629.59;;;13.82;66.88
79123;BME280;68526;44.600;26.032;2023-04-25T00:07:09;99638.66;;;13.83;66.78
79123;BME280;68526;44.600;26.032;2023-04-25T00:07:25;99633.06;;;13.79;66.59
79123;BME280;68526;44.600;26.032;2023-04-25T00:07:41;99636.19;;;13.78;67.03
79123;BME280;68526;44.600;26.032;2023-04-25T00:07:58;99621.53;;;13.74;66.80
79123;BME280;68526;44.600;26.032;2023-04-25T00:08:13;99633.50;;;13.81;67.18
79123;BME280;68526;44.600;26.032;2023-04-25T00:08:30;99634.31;;;13.82;66.84
79123;BME280;68526;44.600;26.032;2023-04-25T00:08:48;99629.25;;;13.84;66.57
79123;BME280;68526;44.600;26.032;2023-04-25T00:09:04;99640.53;;;13.79;67.22
79123;BME280;68526;44.600;26.032;2023-04-25T00:09:22;99634.22;;;13.78;67.13
79123;BME280;68526;44.600;26.032;2023-04-25T00:09:38;99634.22;;;13.78;66.99
79123;BME280;68526;44.600;26.032;2023-04-25T00:09:56;99629.41;;;13.75;66.22
79123;BME280;68526;44.600;26.032;2023-04-25T00:10:12;99631.03;;;13.76;66.71
79123;BME280;68526;44.600;26.032;2023-04-25T00:10:28;99632.53;;;13.74;66.05
79123;BME280;68526;44.600;26.032;2023-04-25T00:10:43;99636.72;;;13.68;66.26
79123;BME280;68526;44.600;26.032;2023-04-25T00:11:00;99629.09;;;13.61;66.15
79123;BME280;68526;44.600;26.032;2023-04-25T00:11:17;99635.50;;;13.65;66.06
79123;BME280;68526;44.600;26.032;2023-04-25T00:11:33;99635.94;;;13.67;66.33
79123;BME280;68526;44.600;26.032;2023-04-25T00:11:49;99635.13;;;13.67;66.17
79123;BME280;68526;44.600;26.032;2023-04-25T00:12:05;99632.22;;;13.59;65.93
79123;BME280;68526;44.600;26.032;2023-04-25T00:12:21;99632.50;;;13.54;65.86
79123;BME280;68526;44.600;26.032;2023-04-25T00:12:38;99641.97;;;13.57;66.25
79123;BME280;68526;44.600;26.032;2023-04-25T00:12:54;99645.09;;;13.55;66.51
79123;BME280;68526;44.600;26.032;2023-04-25T00:13:10;99629.66;;;13.51;66.70
79123;BME280;68526;44.600;26.032;2023-04-25T00:13:27;99638.69;;;13.51;66.28
79123;BME280;68526;44.600;26.032;2023-04-25T00:13:42;99639.94;;;13.54;66.17
79123;BME280;68526;44.600;26.032;2023-04-25T00:13:58;99639.94;;;13.54;66.29
79123;BME280;68526;44.600;26.032;2023-04-25T00:14:15;99636.56;;;13.45;66.15
79123;BME280;68526;44.600;26.032;2023-04-25T00:14:32;99638.16;;;13.46;66.14
79123;BME280;68526;44.600;26.032;2023-04-25T00:14:49;99636.56;;;13.45;65.95
79123;BME280;68526;44.600;26.032;2023-04-25T00:15:06;99637.94;;;13.35;66.04
79123;BME280;68526;44.600;26.032;2023-04-25T00:15:22;99640.22;;;13.33;66.10
79123;BME280;68526;44.600;26.032;2023-04-25T00:15:38;99642.19;;;13.32;66.55
79123;BME280;68526;44.600;26.032;2023-04-25T00:15:54;99641.75;;;13.30;66.14
79123;BME280;68526;44.600;26.032;2023-04-25T00:16:11;99638.88;;;13.27;66.17
79123;BME280;68526;44.600;26.032;2023-04-25T00:16:29;99638.47;;;13.25;66.21
79123;BME280;68526;44.600;26.032;2023-04-25T00:16:48;99635.94;;;13.20;66.38
79123;BME280;68526;44.600;26.032;2023-04-25T00:17:07;99640.78;;;13.23;66.37
79123;BME280;68526;44.600;26.032;2023-04-25T00:17:24;99632.53;;;13.23;66.48
79123;BME280;68526;44.600;26.032;2023-04-25T00:17:42;99636.13;;;13.27;66.51
79123;BME280;68526;44.600;26.032;2023-04-25T00:17:58;99640.03;;;13.26;66.69
79123;BME280;68526;44.600;26.032;2023-04-25T00:18:14;99631.44;;;13.27;66.45
79123;BME280;68526;44.600;26.032;2023-04-25T00:18:30;99638.09;;;13.26;66.46
79123;BME280;68526;44.600;26.032;2023-04-25T00:18:45;99631.38;;;13.24;67.03
79123;BME280;68526;44.600;26.032;2023-04-25T00:19:06;99634.47;;;13.22;66.59
79123;BME280;68526;44.600;26.032;2023-04-25T00:19:22;99625.72;;;13.20;66.52
79123;BME280;68526;44.600;26.032;2023-04-25T00:19:40;99635.28;;;13.23;66.73
79123;BME280;68526;44.600;26.032;2023-04-25T00:19:55;99638.47;;;13.25;66.67
79123;BME280;68526;44.600;26.032;2023-04-25T00:20:13;99640.03;;;13.26;67.00
79123;BME280;68526;44.600;26.032;2023-04-25T00:20:29;99640.47;;;13.28;66.68
79123;BME280;68526;44.600;26.032;2023-04-25T00:20:45;99629.84;;;13.26;66.81
79123;BME280;68526;44.600;26.032;2023-04-25T00:21:01;99634.97;;;13.28;66.24
79123;BME280;68526;44.600;26.032;2023-04-25T00:21:21;99629.03;;;13.26;66.62
79123;BME280;68526;44.600;26.032;2023-04-25T00:21:39;99627.88;;;13.27;66.39
79123;BME280;68526;44.600;26.032;2023-04-25T00:21:56;99630.56;;;13.23;67.02
79123;BME280;68526;44.600;26.032;2023-04-25T00:22:11;99632.59;;;13.26;66.25
79123;BME280;68526;44.600;26.032;2023-04-25T00:22:27;99630.63;;;13.27;66.77
79123;BME280;68526;44.600;26.032;2023-04-25T00:22:44;99632.22;;;13.28;66.50
79123;BME280;68526;44.600;26.032;2023-04-25T00:23:00;99639.69;;;13.27;66.56
79123;BME280;68526;44.600;26.032;2023-04-25T00:23:17;99635.81;;;13.28;66.49
79123;BME280;68526;44.600;26.032;2023-04-25T00:23:33;99640.94;;;13.30;66.58
79123;BME280;68526;44.600;26.032;2023-04-25T00:23:52;99634.53;;;13.26;66.34
79123;BME280;68526;44.600;26.032;2023-04-25T00:24:09;99632.22;;;13.28;66.19
79123;BME280;68526;44.600;26.032;2023-04-25T00:24:25;99633.06;;;13.28;66.38
79123;BME280;68526;44.600;26.032;2023-04-25T00:24:41;99632.69;;;13.30;66.70
79123;BME280;68526;44.600;26.032;2023-04-25T00:24:57;99636.94;;;13.27;66.19
79123;BME280;68526;44.600;26.032;2023-04-25T00:25:15;99636.50;;;13.25;66.20
79123;BME280;68526;44.600;26.032;2023-04-25T00:25:31;99636.50;;;13.25;66.02
79123;BME280;68526;44.600;26.032;2023-04-25T00:25:49;99627.47;;;13.25;66.58
79123;BME280;68526;44.600;26.032;2023-04-25T00:26:05;99619.19;;;13.25;66.52
79123;BME280;68526;44.600;26.032;2023-04-25T00:26:21;99635.34;;;13.26;66.37
79123;BME280;68526;44.600;26.032;2023-04-25T00:26:37;99624.69;;;13.25;66.39
79123;BME280;68526;44.600;26.032;2023-04-25T00:26:53;99633.75;;;13.25;66.57
79123;BME280;68526;44.600;26.032;2023-04-25T00:27:10;99628.63;;;13.24;66.32
79123;BME280;68526;44.600;26.032;2023-04-25T00:27:25;99629.41;;;13.24;66.78
79123;BME280;68526;44.600;26.032;2023-04-25T00:27:41;99631.59;;;13.19;65.73
79123;BME280;68526;44.600;26.032;2023-04-25T00:27:57;99636.66;;;13.17;65.80
79123;BME280;68526;44.600;26.032;2023-04-25T00:28:14;99611.38;;;13.11;66.28
79123;BME280;68526;44.600;26.032;2023-04-25T00:28:30;99628.31;;;13.13;65.88
79123;BME280;68526;44.600;26.032;2023-04-25T00:28:46;99629.09;;;13.14;66.50
79123;BME280;68526;44.600;26.032;2023-04-25T00:29:02;99622.91;;;13.17;66.22
79123;BME280;68526;44.600;26.032;2023-04-25T00:29:18;99621.28;;;13.16;66.50
79123;BME280;68526;44.600;26.032;2023-04-25T00:29:34;99626.78;;;13.16;66.41
79123;BME280;68526;44.600;26.032;2023-04-25T00:29:51;99627.59;;;13.16;66.43
79123;BME280;68526;44.600;26.032;2023-04-25T00:30:08;99632.28;;;13.16;66.31
79123;BME280;68526;44.600;26.032;2023-04-25T00:30:24;99629.81;;;13.10;65.76
79123;BME280;68526;44.600;26.032;2023-04-25T00:30:40;99632.47;;;13.07;65.62
79123;BME280;68526;44.600;26.032;2023-04-25T00:30:56;99628.13;;;13.06;65.40
79123;BME280;68526;44.600;26.032;2023-04-25T00:31:12;99632.56;;;13.10;65.51
79123;BME280;68526;44.600;26.032;2023-04-25T00:31:29;99623.16;;;13.12;65.96
79123;BME280;68526;44.600;26.032;2023-04-25T00:31:45;99632.66;;;13.14;65.56
79123;BME280;68526;44.600;26.032;2023-04-25T00:32:01;99633.00;;;13.13;65.95
79123;BME280;68526;44.600;26.032;2023-04-25T00:32:17;99586.25;;;12.81;65.15
79123;BME280;68526;44.600;26.032;2023-04-25T00:32:34;99631.41;;;13.12;65.41
79123;BME280;68526;44.600;26.032;2023-04-25T00:32:51;99628.22;;;13.09;65.29
79123;BME280;68526;44.600;26.032;2023-04-25T00:33:07;99634.06;;;13.08;65.38
79123;BME280;68526;44.600;26.032;2023-04-25T00:33:23;99636.13;;;13.11;65.54
79123;BME280;68526;44.600;26.032;2023-04-25T00:33:39;99632.56;;;13.10;65.64
79123;BME280;68526;44.600;26.032;2023-04-25T00:33:55;99636.13;;;13.11;65.92
79123;BME280;68526;44.600;26.032;2023-04-25T00:34:11;99632.56;;;13.10;65.62
79123;BME280;68526;44.600;26.032;2023-04-25T00:34:28;99630.63;;;13.11;65.86
79123;BME280;68526;44.600;26.032;2023-04-25T00:34:44;99640.09;;;13.14;65.95
79123;BME280;68526;44.600;26.032;2023-04-25T00:35:00;99633.69;;;13.09;65.66
79123;BME280;68526;44.600;26.032;2023-04-25T00:35:16;99634.44;;;13.06;65.78
79123;BME280;68526;44.600;26.032;2023-04-25T00:35:31;99618.19;;;13.01;65.58
79123;BME280;68526;44.600;26.032;2023-04-25T00:35:47;99633.69;;;13.09;65.47
79123;BME280;68526;44.600;26.032;2023-04-25T00:36:05;99632.56;;;13.10;66.09
79123;BME280;68526;44.600;26.032;2023-04-25T00:36:21;99634.16;;;13.12;65.93
79123;BME280;68526;44.600;26.032;2023-04-25T00:36:37;99636.13;;;13.11;66.02
79123;BME280;68526;44.600;26.032;2023-04-25T00:36:53;99628.66;;;13.12;65.89
79123;BME280;68526;44.600;26.032;2023-04-25T00:37:09;99633.00;;;13.13;65.89
79123;BME280;68526;44.600;26.032;2023-04-25T00:37:26;99634.97;;;13.12;65.83
79123;BME280;68526;44.600;26.032;2023-04-25T00:37:43;99633.38;;;13.11;65.72
79123;BME280;68526;44.600;26.032;2023-04-25T00:37:59;99638.06;;;13.10;65.46
79123;BME280;68526;44.600;26.032;2023-04-25T00:38:15;99631.75;;;13.10;65.43
79123;BME280;68526;44.600;26.032;2023-04-25T00:38:31;99633.28;;;13.07;65.16
79123;BME280;68526;44.600;26.032;2023-04-25T00:38:47;99640.28;;;13.05;65.31
79123;BME280;68526;44.600;26.032;2023-04-25T00:39:03;99627.34;;;13.05;65.22
79123;BME280;68526;44.600;26.032;2023-04-25T00:39:20;99628.03;;;13.02;64.82
79123;BME280;68526;44.600;26.032;2023-04-25T00:39:36;99630.41;;;13.04;65.15
79123;BME280;68526;44.600;26.032;2023-04-25T00:39:52;99624.91;;;13.04;65.11
79123;BME280;68526;44.600;26.032;2023-04-25T00:40:10;99624.47;;;13.02;65.04
79123;BME280;68526;44.600;26.032;2023-04-25T00:40:26;99626.25;;;12.94;64.93
79123;BME280;68526;44.600;26.032;2023-04-25T00:40:42;99626.00;;;12.99;65.12
79123;BME280;68526;44.600;26.032;2023-04-25T00:41:00;99630.34;;;13.00;65.15
79123;BME280;68526;44.600;26.032;2023-04-25T00:41:16;99629.44;;;12.96;64.78
79123;BME280;68526;44.600;26.032;2023-04-25T00:41:32;99628.66;;;12.96;65.49
79123;BME280;68526;44.600;26.032;2023-04-25T00:41:48;99634.88;;;12.93;64.74
79123;BME280;68526;44.600;26.032;2023-04-25T00:42:08;99630.84;;;12.90;65.01
79123;BME280;68526;44.600;26.032;2023-04-25T00:42:25;99630.97;;;12.94;65.03
79123;BME280;68526;44.600;26.032;2023-04-25T00:42:41;99619.97;;;12.94;65.23
79123;BME280;68526;44.600;26.032;2023-04-25T00:42:57;99630.16;;;12.93;65.36
79123;BME280;68526;44.600;26.032;2023-04-25T00:43:13;99630.50;;;12.92;64.93
79123;BME280;68526;44.600;26.032;2023-04-25T00:43:30;99625.78;;;12.92;65.20
79123;BME280;68526;44.600;26.032;2023-04-25T00:43:49;99628.53;;;12.92;65.24
79123;BME280;68526;44.600;26.032;2023-04-25T00:44:08;99636.34;;;12.90;65.09
79123;BME280;68526;44.600;26.032;2023-04-25T00:44:26;99634.22;;;12.83;65.10
79123;BME280;68526;44.600;26.032;2023-04-25T00:44:43;99633.44;;;12.83;65.72
79123;BME280;68526;44.600;26.032;2023-04-25T00:45:00;99642.09;;;12.85;64.64
79123;BME280;68526;44.600;26.032;2023-04-25T00:45:17;99642.09;;;12.85;65.01
79123;BME280;68526;44.600;26.032;2023-04-25T00:45:38;99634.91;;;12.80;64.59
79123;BME280;68526;44.600;26.032;2023-04-25T00:45:55;99641.91;;;12.78;64.73
79123;BME280;68526;44.600;26.032;2023-04-25T00:46:13;99632.88;;;12.77;64.71
79123;BME280;68526;44.600;26.032;2023-04-25T00:46:29;99636.00;;;12.76;64.73
79123;BME280;68526;44.600;26.032;2023-04-25T00:46:47;99641.56;;;12.79;64.62
79123;BME280;68526;44.600;26.032;2023-04-25T00:47:03;99640.31;;;12.77;64.71
79123;BME280;68526;44.600;26.032;2023-04-25T00:47:20;99642.53;;;12.71;64.87
79123;BME280;68526;44.600;26.032;2023-04-25T00:47:38;99629.16;;;12.70;64.63
79123;BME280;68526;44.600;26.032;2023-04-25T00:47:54;99633.84;;;12.69;65.21
79123;BME280;68526;44.600;26.032;2023-04-25T00:48:10;99634.97;;;12.68;65.33
79123;BME280;68526;44.600;26.032;2023-04-25T00:48:27;99637.72;;;12.68;64.70
79123;BME280;68526;44.600;26.032;2023-04-25T00:48:43;99636.94;;;12.68;65.14
79123;BME280;68526;44.600;26.032;2023-04-25T00:48:59;99626.66;;;12.65;65.02
79123;BME280;68526;44.600;26.032;2023-04-25T00:49:15;99631.16;;;12.57;65.05
79123;BME280;68526;44.600;26.032;2023-04-25T00:49:32;99629.91;;;12.54;65.14
79123;BME280;68526;44.600;26.032;2023-04-25T00:49:48;99620.19;;;12.57;65.05
79123;BME280;68526;44.600;26.032;2023-04-25T00:50:06;99631.16;;;12.57;64.86
79123;BME280;68526;44.600;26.032;2023-04-25T00:50:22;99633.91;;;12.57;64.71
79123;BME280;68526;44.600;26.032;2023-04-25T00:50:38;99634.72;;;12.57;65.38
79123;BME280;68526;44.600;26.032;2023-04-25T00:50:55;99627.16;;;12.54;65.32
79123;BME280;68526;44.600;26.032;2023-04-25T00:51:16;99619.72;;;12.55;65.13
79123;BME280;68526;44.600;26.032;2023-04-25T00:51:33;99627.16;;;12.54;65.12
79123;BME280;68526;44.600;26.032;2023-04-25T00:51:50;99628.31;;;12.53;65.39
79123;BME280;68526;44.600;26.032;2023-04-25T00:52:05;99629.53;;;12.56;64.98
79123;BME280;68526;44.600;26.032;2023-04-25T00:52:21;99629.91;;;12.54;65.39
79123;BME280;68526;44.600;26.032;2023-04-25T00:52:38;99627.59;;;12.56;65.44
79123;BME280;68526;44.600;26.032;2023-04-25T00:52:56;99636.31;;;12.59;65.49
79123;BME280;68526;44.600;26.032;2023-04-25T00:53:12;99631.16;;;12.57;65.38
79123;BME280;68526;44.600;26.032;2023-04-25T00:53:30;99635.03;;;12.56;65.47
79123;BME280;68526;44.600;26.032;2023-04-25T00:53:48;99629.09;;;12.54;65.40
79123;BME280;68526;44.600;26.032;2023-04-25T00:54:05;99637.34;;;12.54;65.41
79123;BME280;68526;44.600;26.032;2023-04-25T00:54:21;99631.84;;;12.54;65.33
79123;BME280;68526;44.600;26.032;2023-04-25T00:54:38;99637.69;;;12.52;65.30
79123;BME280;68526;44.600;26.032;2023-04-25T00:54:54;99635.28;;;12.51;65.26
79123;BME280;68526;44.600;26.032;2023-04-25T00:55:11;99634.47;;;12.50;65.33
79123;BME280;68526;44.600;26.032;2023-04-25T00:55:27;99636.00;;;12.48;65.09
79123;BME280;68526;44.600;26.032;2023-04-25T00:55:44;99632.91;;;12.49;65.16
79123;BME280;68526;44.600;26.032;2023-04-25T00:56:01;99647.00;;;12.48;65.33
79123;BME280;68526;44.600;26.032;2023-04-25T00:56:17;99634.28;;;12.43;65.26
79123;BME280;68526;44.600;26.032;2023-04-25T00:56:33;99646.06;;;12.44;65.37
79123;BME280;68526;44.600;26.032;2023-04-25T00:56:49;99640.59;;;12.44;65.23
79123;BME280;68526;44.600;26.032;2023-04-25T00:57:05;99644.94;;;12.45;65.34
79123;BME280;68526;44.600;26.032;2023-04-25T00:57:22;99639.09;;;12.46;65.39
79123;BME280;68526;44.600;26.032;2023-04-25T00:57:38;99646.19;;;12.47;65.17
79123;BME280;68526;44.600;26.032;2023-04-25T00:57:55;99644.84;;;12.41;65.29
79123;BME280;68526;44.600;26.032;2023-04-25T00:58:11;99645.28;;;12.43;65.61
79123;BME280;68526;44.600;26.032;2023-04-25T00:58:27;99650.09;;;12.46;65.09
79123;BME280;68526;44.600;26.032;2023-04-25T00:58:43;99631.47;;;12.40;65.28
79123;BME280;68526;44.600;26.032;2023-04-25T00:58:59;99641.13;;;12.49;65.76
79123;BME280;68526;44.600;26.032;2023-04-25T00:59:15;99638.38;;;12.49;65.68
79123;BME280;68526;44.600;26.032;2023-04-25T00:59:33;99647.09;;;12.51;65.59
79123;BME280;68526;44.600;26.032;2023-04-25T00:59:51;99639.28;;;12.53;66.09
79123;BME280;68526;44.600;26.032;2023-04-25T01:00:08;99635.41;;;12.54;65.96
79123;BME280;68526;44.600;26.032;2023-04-25T01:00:26;99636.19;;;12.55;65.73
79123;BME280;68526;44.600;26.032;2023-04-25T01:00:42;99636.66;;;12.57;65.86
79123;BME280;68526;44.600;26.032;2023-04-25T01:00:59;99636.66;;;12.57;65.38
79123;BME280;68526;44.600;26.032;2023-04-25T01:01:15;99637.78;;;12.56;65.99
79123;BME280;68526;44.600;26.032;2023-04-25T01:01:32;99635.03;;;12.56;65.43
79123;BME280;68526;44.600;26.032;2023-04-25T01:01:48;99634.25;;;12.55;65.09
79123;BME280;68526;44.600;26.032;2023-04-25T01:02:04;99645.59;;;12.54;65.32
79123;BME280;68526;44.600;26.032;2023-04-25T01:02:22;99636.91;;;12.52;65.46
79123;BME280;68526;44.600;26.032;2023-04-25T01:02:40;99638.75;;;12.48;65.31
79123;BME280;68526;44.600;26.032;2023-04-25T01:02:56;99645.38;;;12.47;65.57
79123;BME280;68526;44.600;26.032;2023-04-25T01:03:12;99644.25;;;12.48;64.62
79123;BME280;68526;44.600;26.032;2023-04-25T01:03:30;99645.03;;;12.48;64.74
79123;BME280;68526;44.600;26.032;2023-04-25T01:03:49;99646.28;;;12.51;65.13
79123;BME280;68526;44.600;26.032;2023-04-25T01:04:06;99646.63;;;12.49;65.17
79123;BME280;68526;44.600;26.032;2023-04-25T01:04:22;99648.94;;;12.47;64.75
79123;BME280;68526;44.600;26.032;2023-04-25T01:04:39;99641.84;;;12.46;64.83
79123;BME280;68526;44.600;26.032;2023-04-25T01:04:54;99649.28;;;12.46;65.20
79123;BME280;68526;44.600;26.032;2023-04-25T01:05:11;99647.22;;;12.43;65.07
79123;BME280;68526;44.600;26.032;2023-04-25T01:05:29;99643.69;;;12.42;65.01
79123;BME280;68526;44.600;26.032;2023-04-25T01:05:45;99646.44;;;12.42;65.22
79123;BME280;68526;44.600;26.032;2023-04-25T01:06:02;99641.72;;;12.43;65.08
79123;BME280;68526;44.600;26.032;2023-04-25T01:06:18;99640.03;;;12.38;65.23
79123;BME280;68526;44.600;26.032;2023-04-25T01:06:34;99642.44;;;12.40;65.17
79123;BME280;68526;44.600;26.032;2023-04-25T01:06:50;99640.50;;;12.40;65.31
79123;BME280;68526;44.600;26.032;2023-04-25T01:07:08;99635.09;;;12.44;64.86
79123;BME280;68526;44.600;26.032;2023-04-25T01:07:25;99643.81;;;12.46;65.29
79123;BME280;68526;44.600;26.032;2023-04-25T01:07:41;99642.53;;;12.43;65.08
79123;BME280;68526;44.600;26.032;2023-04-25T01:07:58;99642.19;;;12.45;65.00
79123;BME280;68526;44.600;26.032;2023-04-25T01:08:14;99646.19;;;12.47;65.49
79123;BME280;68526;44.600;26.032;2023-04-25T01:08:31;99637.94;;;12.47;65.36
79123;BME280;68526;44.600;26.032;2023-04-25T01:08:48;99635.88;;;12.44;65.48
79123;BME280;68526;44.600;26.032;2023-04-25T01:09:05;99641.94;;;12.50;65.40
79123;BME280;68526;44.600;26.032;2023-04-25T01:09:22;99638.38;;;12.49;64.83
79123;BME280;68526;44.600;26.032;2023-04-25T01:09:38;99640.69;;;12.47;65.58
79123;BME280;68526;44.600;26.032;2023-04-25T01:09:54;99645.38;;;12.47;65.35
79123;BME280;68526;44.600;26.032;2023-04-25T01:10:10;99649.72;;;12.48;65.42
79123;BME280;68526;44.600;26.032;2023-04-25T01:10:27;99645.38;;;12.47;65.49
79123;BME280;68526;44.600;26.032;2023-04-25T01:10:43;99646.00;;;12.40;64.79
79123;BME280;68526;44.600;26.032;2023-04-25T01:10:58;99650.22;;;12.38;65.26
79123;BME280;68526;44.600;26.032;2023-04-25T01:11:14;99635.50;;;12.30;65.27
79123;BME280;68526;44.600;26.032;2023-04-25T01:11:30;99647.47;;;12.38;65.51
79123;BME280;68526;44.600;26.032;2023-04-25T01:11:46;99643.56;;;12.39;65.14
79123;BME280;68526;44.600;26.032;2023-04-25T01:12:03;99644.28;;;12.36;65.55
79123;BME280;68526;44.600;26.032;2023-04-25T01:12:19;99627.50;;;12.25;65.23
79123;BME280;68526;44.600;26.032;2023-04-25T01:12:36;99647.72;;;12.33;65.52
79123;BME280;68526;44.600;26.032;2023-04-25T01:12:52;99635.59;;;12.34;65.77
79123;BME280;68526;44.600;26.032;2023-04-25T01:13:08;99640.97;;;12.30;65.95
79123;BME280;68526;44.600;26.032;2023-04-25T01:13:24;99641.09;;;12.34;65.51
79123;BME280;68526;44.600;26.032;2023-04-25T01:13:41;99642.22;;;12.33;65.52
79123;BME280;68526;44.600;26.032;2023-04-25T01:13:57;99643.03;;;12.33;65.78
79123;BME280;68526;44.600;26.032;2023-04-25T01:14:13;99650.03;;;12.30;65.52
79123;BME280;68526;44.600;26.032;2023-04-25T01:14:29;99638.91;;;12.27;65.92
79123;BME280;68526;44.600;26.032;2023-04-25T01:14:45;99642.03;;;12.25;66.12
79123;BME280;68526;44.600;26.032;2023-04-25T01:15:02;99643.53;;;12.23;65.86
79123;BME280;68526;44.600;26.032;2023-04-25T01:15:19;99651.78;;;12.23;65.72
79123;BME280;68526;44.600;26.032;2023-04-25T01:15:34;99642.72;;;12.22;65.47
79123;BME280;68526;44.600;26.032;2023-04-25T01:15:51;99649.34;;;12.21;65.65
79123;BME280;68526;44.600;26.032;2023-04-25T01:16:07;99644.22;;;12.20;65.58
79123;BME280;68526;44.600;26.032;2023-04-25T01:16:23;99642.38;;;12.24;65.54
79123;BME280;68526;44.600;26.032;2023-04-25T01:16:41;99640.78;;;12.23;66.07
79123;BME280;68526;44.600;26.032;2023-04-25T01:16:59;99645.00;;;12.20;65.97
79123;BME280;68526;44.600;26.032;2023-04-25T01:17:15;99640.06;;;12.26;65.87
79123;BME280;68526;44.600;26.032;2023-04-25T01:17:34;99643.97;;;12.25;65.93
79123;BME280;68526;44.600;26.032;2023-04-25T01:17:51;99651.41;;;12.24;65.99
79123;BME280;68526;44.600;26.032;2023-04-25T01:18:08;99647.31;;;12.18;65.91
79123;BME280;68526;44.600;26.032;2023-04-25T01:18:25;99650.19;;;12.22;65.99
79123;BME280;68526;44.600;26.032;2023-04-25T01:18:41;99654.84;;;12.21;66.14
79123;BME280;68526;44.600;26.032;2023-04-25T01:18:58;99661.16;;;12.22;66.49
79123;BME280;68526;44.600;26.032;2023-04-25T01:19:16;99645.13;;;12.24;66.26
79123;BME280;68526;44.600;26.032;2023-04-25T01:19:33;99657.03;;;12.28;65.74
79123;BME280;68526;44.600;26.032;2023-04-25T01:19:49;99640.88;;;12.26;65.70
79123;BME280;68526;44.600;26.032;2023-04-25T01:20:07;99649.81;;;12.23;66.04
79123;BME280;68526;44.600;26.032;2023-04-25T01:20:24;99649.03;;;12.23;66.30
79123;BME280;68526;44.600;26.032;2023-04-25T01:20:42;99653.72;;;12.22;66.27
79123;BME280;68526;44.600;26.032;2023-04-25T01:21:07;99651.66;;;12.19;66.18
79123;BME280;68526;44.600;26.032;2023-04-25T01:21:23;99656.78;;;12.21;66.06
79123;BME280;68526;44.600;26.032;2023-04-25T01:21:41;99656.00;;;12.20;65.68
79123;BME280;68526;44.600;26.032;2023-04-25T01:21:58;99654.84;;;12.21;65.89
79123;BME280;68526;44.600;26.032;2023-04-25T01:22:15;99655.66;;;12.22;65.99
79123;BME280;68526;44.600;26.032;2023-04-25T01:22:31;99659.22;;;12.22;65.44
79123;BME280;68526;44.600;26.032;2023-04-25T01:22:47;99655.66;;;12.22;65.44
79123;BME280;68526;44.600;26.032;2023-04-25T01:23:03;99651.78;;;12.23;65.20
79123;BME280;68526;44.600;26.032;2023-04-25T01:23:19;99645.13;;;12.24;65.28
79123;BME280;68526;44.600;26.032;2023-04-25T01:23:37;99660.09;;;12.26;65.56
79123;BME280;68526;44.600;26.032;2023-04-25T01:23:54;99655.75;;;12.25;65.41
79123;BME280;68526;44.600;26.032;2023-04-25T01:24:10;99651.78;;;12.23;65.70
79123;BME280;68526;44.600;26.032;2023-04-25T01:24:26;99651.41;;;12.24;65.92
79123;BME280;68526;44.600;26.032;2023-04-25T01:24:42;99654.50;;;12.23;65.87
79123;BME280;68526;44.600;26.032;2023-04-25T01:24:59;99650.97;;;12.22;65.79
79123;BME280;68526;44.600;26.032;2023-04-25T01:25:17;99640.78;;;12.23;65.32
79123;BME280;68526;44.600;26.032;2023-04-25T01:25:33;99653.81;;;12.26;65.52
79123;BME280;68526;44.600;26.032;2023-04-25T01:25:49;99650.63;;;12.24;65.73
79123;BME280;68526;44.600;26.032;2023-04-25T01:26:06;99650.84;;;12.19;65.63
79123;BME280;68526;44.600;26.032;2023-04-25T01:26:22;99648.00;;;12.15;66.13
79123;BME280;68526;44.600;26.032;2023-04-25T01:26:40;99650.41;;;12.17;65.86
79123;BME280;68526;44.600;26.032;2023-04-25T01:27:00;99655.78;;;12.13;66.45
79123;BME280;68526;44.600;26.032;2023-04-25T01:27:16;99647.56;;;12.13;66.30